Woodhull, Illinois
Current Conditions -  °F | °C
As of 10:15 AM on Wednesday 28 Jan 2015 (Local Time) from KGBG Reporting Station
Clear Clear  
Wind Chill: 22°   Ceiling: Unl
Heat Index: 31°   Visibility: 10mi
Dew Point: 25°   Wind: 10mph
Humidity: 78%   Direction: 140°SE
Pressure: 30.15"   Gusts: 21mph
Location:  41.18°N, 90.32°W
Report Text: KGBG 281615Z AUTO 14009G18KT 10SM CLR M01/M04 A3015 RMK AO2 T10071041
Loading
Personal Weather Stations






























Interactive Weather Map New forecast layout! Learn more

10-Day Weather Forecast

Advertisements
Track Severe Weather on mobile